sensor_id;sensor_type;location;lat;lon;timestamp;pressure;altitude;pressure_sealevel;temperature;humidity
73332;BME280;61560;33.718;73.040;2023-06-24T00:01:46;93584.16;;;34.28;52.62
73332;BME280;61560;33.718;73.040;2023-06-24T00:04:14;93581.72;;;34.24;52.99
73332;BME280;61560;33.718;73.040;2023-06-24T00:06:45;93585.47;;;34.27;53.12
73332;BME280;61560;33.718;73.040;2023-06-24T00:09:13;93579.78;;;34.27;52.96
73332;BME280;61560;33.718;73.040;2023-06-24T00:11:41;93583.97;;;34.26;53.43
73332;BME280;61560;33.718;73.040;2023-06-24T00:14:08;93584.56;;;34.24;53.44
73332;BME280;61560;33.718;73.040;2023-06-24T00:16:39;93585.19;;;34.23;53.23
73332;BME280;61560;33.718;73.040;2023-06-24T00:19:08;93580.41;;;34.25;53.43
73332;BME280;61560;33.718;73.040;2023-06-24T00:21:36;93576.03;;;34.24;52.91
73332;BME280;61560;33.718;73.040;2023-06-24T00:24:04;93579.03;;;34.26;53.19
73332;BME280;61560;33.718;73.040;2023-06-24T00:26:32;93586.38;;;34.29;53.42
73332;BME280;61560;33.718;73.040;2023-06-24T00:29:00;93580.69;;;34.29;53.41
73332;BME280;61560;33.718;73.040;2023-06-24T00:33:13;93586.84;;;34.35;52.91
73332;BME280;61560;33.718;73.040;2023-06-24T00:35:41;93590.72;;;34.40;53.19
73332;BME280;61560;33.718;73.040;2023-06-24T00:38:09;93584.59;;;34.43;53.15
73332;BME280;61560;33.718;73.040;2023-06-24T00:40:37;93594.75;;;34.46;52.77
73332;BME280;61560;33.718;73.040;2023-06-24T00:43:06;93594.16;;;34.48;52.85
73332;BME280;61560;33.718;73.040;2023-06-24T00:45:35;93599.84;;;34.48;53.15
73332;BME280;61560;33.718;73.040;2023-06-24T00:48:02;93603.03;;;34.52;52.90
73332;BME280;61560;33.718;73.040;2023-06-24T00:50:32;93596.88;;;34.55;52.73
73332;BME280;61560;33.718;73.040;2023-06-24T00:53:00;93601.06;;;34.64;52.80
73332;BME280;61560;33.718;73.040;2023-06-24T00:55:27;93606.28;;;34.68;52.76
73332;BME280;61560;33.718;73.040;2023-06-24T00:57:56;93602.97;;;34.71;52.35
73332;BME280;61560;33.718;73.040;2023-06-24T01:00:26;93600.13;;;34.71;52.75
73332;BME280;61560;33.718;73.040;2023-06-24T01:02:54;93602.56;;;34.75;53.48
73332;BME280;61560;33.718;73.040;2023-06-24T01:05:26;93598.63;;;34.80;52.77
73332;BME280;61560;33.718;73.040;2023-06-24T01:07:55;93603.44;;;34.87;52.74
73332;BME280;61560;33.718;73.040;2023-06-24T01:10:24;93604.75;;;34.95;52.42
73332;BME280;61560;33.718;73.040;2023-06-24T01:12:54;93614.03;;;34.96;52.09
73332;BME280;61560;33.718;73.040;2023-06-24T01:15:21;93610.44;;;34.95;51.92
73332;BME280;61560;33.718;73.040;2023-06-24T01:20:29;93611.03;;;35.13;51.81
73332;BME280;61560;33.718;73.040;2023-06-24T01:37:00;93619.38;;;35.70;51.11
73332;BME280;61560;33.718;73.040;2023-06-24T01:39:36;93625.50;;;35.76;50.14
73332;BME280;61560;33.718;73.040;2023-06-24T01:42:11;93624.28;;;35.79;50.58
73332;BME280;61560;33.718;73.040;2023-06-24T01:44:44;93616.44;;;35.89;50.23
73332;BME280;61560;33.718;73.040;2023-06-24T01:47:16;93634.31;;;36.11;50.05
73332;BME280;61560;33.718;73.040;2023-06-24T01:49:47;93630.72;;;36.32;49.71
73332;BME280;61560;33.718;73.040;2023-06-24T01:52:17;93644.34;;;36.43;49.38
73332;BME280;61560;33.718;73.040;2023-06-24T01:54:47;93646.28;;;36.40;49.63
73332;BME280;61560;33.718;73.040;2023-06-24T01:57:16;93655.75;;;36.43;49.46
73332;BME280;61560;33.718;73.040;2023-06-24T01:59:45;93657.78;;;36.52;49.24
73332;BME280;61560;33.718;73.040;2023-06-24T02:02:15;93647.88;;;36.74;49.01
73332;BME280;61560;33.718;73.040;2023-06-24T02:04:48;93659.50;;;36.99;48.29
73332;BME280;61560;33.718;73.040;2023-06-24T02:07:18;93668.53;;;37.17;48.03
73332;BME280;61560;33.718;73.040;2023-06-24T02:09:48;93672.44;;;37.33;47.25
73332;BME280;61560;33.718;73.040;2023-06-24T02:12:17;93677.06;;;37.38;46.98
73332;BME280;61560;33.718;73.040;2023-06-24T02:14:46;93676.06;;;37.45;46.91
73332;BME280;61560;33.718;73.040;2023-06-24T02:17:14;93681.66;;;37.54;46.64
73332;BME280;61560;33.718;73.040;2023-06-24T02:19:43;93689.69;;;37.79;46.19
73332;BME280;61560;33.718;73.040;2023-06-24T02:22:12;93697.03;;;37.94;45.75
73332;BME280;61560;33.718;73.040;2023-06-24T02:24:41;93698.16;;;37.89;44.88
73332;BME280;61560;33.718;73.040;2023-06-24T02:27:09;93695.50;;;37.69;46.14
73332;BME280;61560;33.718;73.040;2023-06-24T02:29:41;93698.34;;;37.58;46.75
73332;BME280;61560;33.718;73.040;2023-06-24T02:32:10;93707.75;;;37.49;46.72
73332;BME280;61560;33.718;73.040;2023-06-24T02:34:38;93705.66;;;37.49;47.35
73332;BME280;61560;33.718;73.040;2023-06-24T02:37:06;93707.75;;;37.37;47.48
73332;BME280;61560;33.718;73.040;2023-06-24T02:39:34;93712.06;;;37.38;47.74
73332;BME280;61560;33.718;73.040;2023-06-24T02:42:04;93719.81;;;37.47;47.70
73332;BME280;61560;33.718;73.040;2023-06-24T02:44:32;93712.34;;;37.42;46.80
73332;BME280;61560;33.718;73.040;2023-06-24T02:47:00;93721.91;;;37.47;46.96
73332;BME280;61560;33.718;73.040;2023-06-24T02:49:30;93721.22;;;37.58;46.63
73332;BME280;61560;33.718;73.040;2023-06-24T02:51:58;93723.47;;;37.71;46.65
73332;BME280;61560;33.718;73.040;2023-06-24T02:54:26;93733.78;;;37.76;46.31
73332;BME280;61560;33.718;73.040;2023-06-24T02:57:26;93733.78;;;37.76;45.89
73332;BME280;61560;33.718;73.040;2023-06-24T03:00:19;93729.56;;;37.65;46.16
73332;BME280;61560;33.718;73.040;2023-06-24T03:03:13;93742.13;;;37.72;46.61
73332;BME280;61560;33.718;73.040;2023-06-24T03:05:54;93732.59;;;37.91;45.46
73332;BME280;61560;33.718;73.040;2023-06-24T03:08:25;93748.78;;;38.09;45.86
73332;BME280;61560;33.718;73.040;2023-06-24T03:10:56;93751.28;;;38.15;44.69
73332;BME280;61560;33.718;73.040;2023-06-24T03:13:28;93746.16;;;38.02;45.45
73332;BME280;61560;33.718;73.040;2023-06-24T03:16:20;93745.81;;;38.19;45.07
73332;BME280;61560;33.718;73.040;2023-06-24T03:19:02;93743.34;;;38.48;44.41
73332;BME280;61560;33.718;73.040;2023-06-24T03:21:30;93748.06;;;38.67;43.59
73332;BME280;61560;33.718;73.040;2023-06-24T03:24:06;93761.09;;;38.93;42.69
73332;BME280;61560;33.718;73.040;2023-06-24T03:26:38;93763.78;;;39.02;42.66
73332;BME280;61560;33.718;73.040;2023-06-24T03:29:12;93755.59;;;38.97;42.63
73332;BME280;61560;33.718;73.040;2023-06-24T03:31:48;93753.56;;;39.22;42.38
73332;BME280;61560;33.718;73.040;2023-06-24T03:34:21;93756.91;;;39.31;42.48
73332;BME280;61560;33.718;73.040;2023-06-24T03:36:58;93749.44;;;39.51;41.94
73332;BME280;61560;33.718;73.040;2023-06-24T03:39:27;93748.69;;;39.50;41.60
73332;BME280;61560;33.718;73.040;2023-06-24T03:41:56;93754.47;;;39.13;42.41
73332;BME280;61560;33.718;73.040;2023-06-24T03:44:24;93752.34;;;39.02;42.49
73332;BME280;61560;33.718;73.040;2023-06-24T03:46:51;93752.53;;;38.81;42.83
73332;BME280;61560;33.718;73.040;2023-06-24T03:49:19;93741.91;;;38.95;43.05
73332;BME280;61560;33.718;73.040;2023-06-24T03:51:48;93755.16;;;39.25;42.91
73332;BME280;61560;33.718;73.040;2023-06-24T03:54:16;93740.34;;;39.79;41.49
73332;BME280;61560;33.718;73.040;2023-06-24T03:56:44;93741.66;;;40.29;40.63
73332;BME280;61560;33.718;73.040;2023-06-24T03:59:11;93742.84;;;40.78;39.96
73332;BME280;61560;33.718;73.040;2023-06-24T04:01:40;93742.41;;;41.11;38.90
73332;BME280;61560;33.718;73.040;2023-06-24T04:04:08;93745.25;;;41.38;38.15
73332;BME280;61560;33.718;73.040;2023-06-24T04:06:36;93737.50;;;41.56;37.94
73332;BME280;61560;33.718;73.040;2023-06-24T04:09:03;93732.75;;;41.76;37.48
73332;BME280;61560;33.718;73.040;2023-06-24T04:11:33;93726.41;;;42.24;36.82
73332;BME280;61560;33.718;73.040;2023-06-24T04:14:01;93733.88;;;42.61;36.17
73332;BME280;61560;33.718;73.040;2023-06-24T04:16:29;93719.69;;;42.98;35.23
73332;BME280;61560;33.718;73.040;2023-06-24T04:18:56;93729.38;;;43.22;35.20
73332;BME280;61560;33.718;73.040;2023-06-24T04:21:25;93717.94;;;43.42;34.38
73332;BME280;61560;33.718;73.040;2023-06-24T04:23:52;93730.59;;;43.68;34.31
73332;BME280;61560;33.718;73.040;2023-06-24T04:26:20;93733.72;;;44.09;33.75
73332;BME280;61560;33.718;73.040;2023-06-24T04:28:48;93719.41;;;44.50;33.06
73332;BME280;61560;33.718;73.040;2023-06-24T04:31:17;93721.28;;;44.61;32.66
73332;BME280;61560;33.718;73.040;2023-06-24T04:33:44;93720.69;;;44.65;32.68
73332;BME280;61560;33.718;73.040;2023-06-24T04:36:13;93727.19;;;44.83;32.23
73332;BME280;61560;33.718;73.040;2023-06-24T04:38:42;93720.78;;;44.87;32.08
73332;BME280;61560;33.718;73.040;2023-06-24T04:41:10;93720.78;;;44.30;32.80
73332;BME280;61560;33.718;73.040;2023-06-24T04:43:37;93727.75;;;44.05;33.27
73332;BME280;61560;33.718;73.040;2023-06-24T04:46:05;93720.56;;;44.24;33.44
73332;BME280;61560;33.718;73.040;2023-06-24T04:48:32;93713.09;;;44.36;33.60
73332;BME280;61560;33.718;73.040;2023-06-24T04:51:00;93723.66;;;44.47;33.39
73332;BME280;61560;33.718;73.040;2023-06-24T04:53:28;93719.88;;;44.43;32.90
73332;BME280;61560;33.718;73.040;2023-06-24T04:55:56;93718.03;;;44.51;32.68
73332;BME280;61560;33.718;73.040;2023-06-24T04:58:24;93713.50;;;44.46;33.04
73332;BME280;61560;33.718;73.040;2023-06-24T05:00:51;93713.16;;;44.38;33.23
73332;BME280;61560;33.718;73.040;2023-06-24T05:03:20;93706.25;;;44.28;33.53
73332;BME280;61560;33.718;73.040;2023-06-24T05:05:48;93711.44;;;44.12;33.53
73332;BME280;61560;33.718;73.040;2023-06-24T05:08:16;93708.16;;;43.84;34.28
73332;BME280;61560;33.718;73.040;2023-06-24T05:10:43;93709.31;;;43.77;34.33
73332;BME280;61560;33.718;73.040;2023-06-24T05:13:11;93707.44;;;43.66;34.42
73332;BME280;61560;33.718;73.040;2023-06-24T05:15:38;93702.78;;;43.76;34.27
73332;BME280;61560;33.718;73.040;2023-06-24T05:18:06;93713.25;;;44.03;33.93
73332;BME280;61560;33.718;73.040;2023-06-24T05:20:34;93704.19;;;43.93;33.86
73332;BME280;61560;33.718;73.040;2023-06-24T05:23:02;93711.22;;;43.88;33.96
73332;BME280;61560;33.718;73.040;2023-06-24T05:25:29;93704.44;;;43.81;34.28
73332;BME280;61560;33.718;73.040;2023-06-24T05:27:57;93699.19;;;43.76;34.17
73332;BME280;61560;33.718;73.040;2023-06-24T05:30:25;93710.13;;;43.62;34.79
73332;BME280;61560;33.718;73.040;2023-06-24T05:32:52;93701.41;;;43.77;34.45
73332;BME280;61560;33.718;73.040;2023-06-24T05:35:20;93706.44;;;43.59;34.60
73332;BME280;61560;33.718;73.040;2023-06-24T05:37:48;93705.09;;;43.27;35.75
73332;BME280;61560;33.718;73.040;2023-06-24T05:40:15;93690.97;;;43.17;35.50
73332;BME280;61560;33.718;73.040;2023-06-24T05:42:43;93688.84;;;43.36;34.86
73332;BME280;61560;33.718;73.040;2023-06-24T05:45:11;93691.19;;;43.74;34.64
73332;BME280;61560;33.718;73.040;2023-06-24T05:47:39;93691.91;;;43.92;33.93
73332;BME280;61560;33.718;73.040;2023-06-24T05:50:07;93685.38;;;43.92;33.78
73332;BME280;61560;33.718;73.040;2023-06-24T05:52:34;93683.09;;;43.88;33.81
73332;BME280;61560;33.718;73.040;2023-06-24T05:55:02;93686.06;;;43.90;34.41
73332;BME280;61560;33.718;73.040;2023-06-24T05:57:30;93676.56;;;44.06;34.22
73332;BME280;61560;33.718;73.040;2023-06-24T05:59:58;93673.56;;;44.21;33.43
73332;BME280;61560;33.718;73.040;2023-06-24T06:02:25;93670.28;;;44.11;33.68
73332;BME280;61560;33.718;73.040;2023-06-24T06:04:55;93667.31;;;43.91;33.65
73332;BME280;61560;33.718;73.040;2023-06-24T06:07:22;93665.25;;;43.94;33.83
73332;BME280;61560;33.718;73.040;2023-06-24T06:09:50;93663.69;;;44.09;33.84
73332;BME280;61560;33.718;73.040;2023-06-24T06:12:18;93658.00;;;44.11;33.50
73332;BME280;61560;33.718;73.040;2023-06-24T06:14:45;93658.75;;;43.93;33.27
73332;BME280;61560;33.718;73.040;2023-06-24T06:17:14;93652.34;;;43.77;34.04
73332;BME280;61560;33.718;73.040;2023-06-24T06:19:42;93650.84;;;43.76;33.79
73332;BME280;61560;33.718;73.040;2023-06-24T06:22:13;93637.91;;;43.77;33.87
73332;BME280;61560;33.718;73.040;2023-06-24T06:24:42;93635.41;;;43.87;33.22
73332;BME280;61560;33.718;73.040;2023-06-24T06:27:10;93624.63;;;43.88;33.41
73332;BME280;61560;33.718;73.040;2023-06-24T06:29:38;93636.50;;;43.78;34.01
73332;BME280;61560;33.718;73.040;2023-06-24T06:32:06;93631.72;;;43.85;33.37
73332;BME280;61560;33.718;73.040;2023-06-24T06:34:34;93607.00;;;43.80;32.82
73332;BME280;61560;33.718;73.040;2023-06-24T06:37:02;93620.16;;;43.65;32.66
73332;BME280;61560;33.718;73.040;2023-06-24T06:39:30;93622.78;;;43.42;34.06
73332;BME280;61560;33.718;73.040;2023-06-24T06:41:58;93618.16;;;43.17;34.16
73332;BME280;61560;33.718;73.040;2023-06-24T06:44:26;93608.66;;;42.97;34.55
73332;BME280;61560;33.718;73.040;2023-06-24T06:46:53;93618.22;;;42.84;34.41
73332;BME280;61560;33.718;73.040;2023-06-24T06:49:24;93609.09;;;42.74;34.59
73332;BME280;61560;33.718;73.040;2023-06-24T06:51:55;93614.56;;;42.83;34.81
73332;BME280;61560;33.718;73.040;2023-06-24T06:54:23;93608.94;;;42.70;34.27
73332;BME280;61560;33.718;73.040;2023-06-24T06:56:50;93608.94;;;42.70;34.65
73332;BME280;61560;33.718;73.040;2023-06-24T06:59:19;93615.63;;;42.74;34.64
73332;BME280;61560;33.718;73.040;2023-06-24T07:01:47;93605.41;;;42.71;34.82
73332;BME280;61560;33.718;73.040;2023-06-24T07:04:14;93606.47;;;42.62;35.01
73332;BME280;61560;33.718;73.040;2023-06-24T07:06:42;93608.41;;;42.58;34.92
73332;BME280;61560;33.718;73.040;2023-06-24T07:09:10;93599.25;;;42.46;33.69
73332;BME280;61560;33.718;73.040;2023-06-24T07:11:37;93591.00;;;42.38;34.20
73332;BME280;61560;33.718;73.040;2023-06-24T07:14:05;93593.88;;;42.38;34.25
73332;BME280;61560;33.718;73.040;2023-06-24T07:16:35;93596.66;;;42.36;33.54
73332;BME280;61560;33.718;73.040;2023-06-24T07:19:03;93587.28;;;42.35;33.90
73332;BME280;61560;33.718;73.040;2023-06-24T07:21:31;93590.50;;;42.44;34.15
73332;BME280;61560;33.718;73.040;2023-06-24T07:24:02;93587.38;;;42.37;33.89
73332;BME280;61560;33.718;73.040;2023-06-24T07:26:29;93583.56;;;42.33;33.65
73332;BME280;61560;33.718;73.040;2023-06-24T07:28:58;93582.38;;;42.22;33.45
73332;BME280;61560;33.718;73.040;2023-06-24T07:31:25;93568.06;;;42.24;32.86
73332;BME280;61560;33.718;73.040;2023-06-24T07:33:53;93578.13;;;42.23;33.54
73332;BME280;61560;33.718;73.040;2023-06-24T07:36:21;93565.03;;;42.20;33.43
73332;BME280;61560;33.718;73.040;2023-06-24T07:38:49;93566.84;;;42.12;33.65
73332;BME280;61560;33.718;73.040;2023-06-24T07:41:16;93555.47;;;42.00;32.24
73332;BME280;61560;33.718;73.040;2023-06-24T07:43:44;93557.91;;;41.90;33.04
73332;BME280;61560;33.718;73.040;2023-06-24T07:46:12;93544.84;;;41.87;33.69
73332;BME280;61560;33.718;73.040;2023-06-24T07:48:39;93542.22;;;41.93;33.35
73332;BME280;61560;33.718;73.040;2023-06-24T07:51:07;93538.59;;;41.93;33.13
73332;BME280;61560;33.718;73.040;2023-06-24T07:53:35;93535.94;;;41.81;33.86
73332;BME280;61560;33.718;73.040;2023-06-24T07:56:03;93522.00;;;41.76;34.08
73332;BME280;61560;33.718;73.040;2023-06-24T07:58:31;93524.25;;;41.77;34.12
73332;BME280;61560;33.718;73.040;2023-06-24T08:00:59;93525.81;;;41.80;34.43
73332;BME280;61560;33.718;73.040;2023-06-24T08:03:26;93528.88;;;41.84;34.11
73332;BME280;61560;33.718;73.040;2023-06-24T08:05:55;93526.56;;;41.81;33.64
73332;BME280;61560;33.718;73.040;2023-06-24T08:08:23;93517.16;;;41.96;34.17
73332;BME280;61560;33.718;73.040;2023-06-24T08:10:50;93527.75;;;42.07;33.71
73332;BME280;61560;33.718;73.040;2023-06-24T08:13:18;93526.69;;;42.00;33.84
73332;BME280;61560;33.718;73.040;2023-06-24T08:15:46;93518.81;;;42.01;33.61
73332;BME280;61560;33.718;73.040;2023-06-24T08:18:14;93519.47;;;42.15;33.56
73332;BME280;61560;33.718;73.040;2023-06-24T08:20:43;93508.53;;;42.29;33.32
73332;BME280;61560;33.718;73.040;2023-06-24T08:23:11;93498.78;;;42.36;33.10
73332;BME280;61560;33.718;73.040;2023-06-24T08:25:39;93500.59;;;42.45;33.22
73332;BME280;61560;33.718;73.040;2023-06-24T08:28:06;93487.13;;;42.50;32.22
73332;BME280;61560;33.718;73.040;2023-06-24T08:30:34;93483.81;;;42.39;32.13
73332;BME280;61560;33.718;73.040;2023-06-24T08:33:02;93481.94;;;42.13;32.81
73332;BME280;61560;33.718;73.040;2023-06-24T08:35:29;93486.88;;;42.10;32.85
73332;BME280;61560;33.718;73.040;2023-06-24T08:37:57;93485.50;;;42.11;32.75
73332;BME280;61560;33.718;73.040;2023-06-24T08:40:25;93496.34;;;42.13;33.29
73332;BME280;61560;33.718;73.040;2023-06-24T08:42:55;93495.84;;;42.18;32.92
73332;BME280;61560;33.718;73.040;2023-06-24T08:45:22;93488.06;;;42.21;32.61
73332;BME280;61560;33.718;73.040;2023-06-24T08:47:50;93488.97;;;42.25;32.11
73332;BME280;61560;33.718;73.040;2023-06-24T08:50:20;93478.66;;;42.20;32.88
73332;BME280;61560;33.718;73.040;2023-06-24T08:52:51;93478.13;;;42.24;32.39
73332;BME280;61560;33.718;73.040;2023-06-24T08:55:22;93482.78;;;42.15;32.26
73332;BME280;61560;33.718;73.040;2023-06-24T08:57:51;93480.31;;;42.08;32.64
73332;BME280;61560;33.718;73.040;2023-06-24T09:00:19;93473.59;;;42.03;32.05
73332;BME280;61560;33.718;73.040;2023-06-24T09:02:47;93459.25;;;41.88;32.43
73332;BME280;61560;33.718;73.040;2023-06-24T09:05:14;93452.13;;;41.89;32.56
73332;BME280;61560;33.718;73.040;2023-06-24T09:07:42;93451.63;;;41.94;32.94
73332;BME280;61560;33.718;73.040;2023-06-24T09:10:10;93448.38;;;42.02;33.11
73332;BME280;61560;33.718;73.040;2023-06-24T09:12:37;93447.34;;;42.11;33.61
73332;BME280;61560;33.718;73.040;2023-06-24T09:15:05;93431.63;;;42.14;32.91
73332;BME280;61560;33.718;73.040;2023-06-24T09:17:33;93435.84;;;42.28;33.04
73332;BME280;61560;33.718;73.040;2023-06-24T09:20:11;93424.50;;;42.32;32.60
73332;BME280;61560;33.718;73.040;2023-06-24T09:22:42;93429.50;;;42.32;32.12
73332;BME280;61560;33.718;73.040;2023-06-24T09:25:09;93422.09;;;42.27;31.96
73332;BME280;61560;33.718;73.040;2023-06-24T09:27:36;93411.81;;;42.22;32.54
73332;BME280;61560;33.718;73.040;2023-06-24T09:30:18;93406.78;;;42.22;32.33
73332;BME280;61560;33.718;73.040;2023-06-24T09:32:51;93402.69;;;42.10;32.55
73332;BME280;61560;33.718;73.040;2023-06-24T09:35:26;93401.28;;;42.11;33.27
73332;BME280;61560;33.718;73.040;2023-06-24T09:37:57;93399.97;;;42.14;33.52
73332;BME280;61560;33.718;73.040;2023-06-24T09:40:27;93399.56;;;42.21;33.82
73332;BME280;61560;33.718;73.040;2023-06-24T09:42:58;93388.56;;;42.16;33.49
73332;BME280;61560;33.718;73.040;2023-06-24T09:45:30;93381.28;;;41.97;33.14
73332;BME280;61560;33.718;73.040;2023-06-24T09:47:58;93384.38;;;41.86;34.00
73332;BME280;61560;33.718;73.040;2023-06-24T09:50:26;93370.16;;;41.90;33.98
73332;BME280;61560;33.718;73.040;2023-06-24T09:52:57;93366.63;;;41.91;33.99
73332;BME280;61560;33.718;73.040;2023-06-24T09:55:25;93361.13;;;41.97;34.21
73332;BME280;61560;33.718;73.040;2023-06-24T09:57:54;93364.84;;;42.00;34.09
73332;BME280;61560;33.718;73.040;2023-06-24T11:02:20;93320.13;;;41.46;34.06
73332;BME280;61560;33.718;73.040;2023-06-24T11:04:50;93325.50;;;41.38;34.35
73332;BME280;61560;33.718;73.040;2023-06-24T11:07:20;93307.84;;;41.28;34.86
73332;BME280;61560;33.718;73.040;2023-06-24T11:09:52;93309.78;;;41.23;34.64
73332;BME280;61560;33.718;73.040;2023-06-24T11:12:25;93311.16;;;41.22;34.54
73332;BME280;61560;33.718;73.040;2023-06-24T11:14:57;93309.66;;;41.21;34.12
73332;BME280;61560;33.718;73.040;2023-06-24T11:17:26;93302.53;;;41.22;34.39
73332;BME280;61560;33.718;73.040;2023-06-24T11:19:55;93305.50;;;41.24;34.64
73332;BME280;61560;33.718;73.040;2023-06-24T11:22:25;93306.72;;;41.19;34.61
73332;BME280;61560;33.718;73.040;2023-06-24T11:24:53;93300.53;;;41.09;34.61
73332;BME280;61560;33.718;73.040;2023-06-24T11:27:29;93308.72;;;40.99;34.35
73332;BME280;61560;33.718;73.040;2023-06-24T11:30:01;93312.59;;;40.90;34.87
73332;BME280;61560;33.718;73.040;2023-06-24T11:35:10;93306.28;;;40.94;34.33
73332;BME280;61560;33.718;73.040;2023-06-24T11:37:45;93297.94;;;41.00;34.44
73332;BME280;61560;33.718;73.040;2023-06-24T11:40:16;93291.66;;;41.03;34.88
73332;BME280;61560;33.718;73.040;2023-06-24T11:42:45;93297.47;;;41.05;34.72
73332;BME280;61560;33.718;73.040;2023-06-24T11:45:20;93296.06;;;41.06;34.40
73332;BME280;61560;33.718;73.040;2023-06-24T11:47:49;93293.84;;;41.05;34.67
73332;BME280;61560;33.718;73.040;2023-06-24T11:50:16;93294.53;;;41.03;34.60
73332;BME280;61560;33.718;73.040;2023-06-24T11:52:47;93291.81;;;41.07;34.47
73332;BME280;61560;33.718;73.040;2023-06-24T11:55:20;93296.91;;;41.09;35.07
73332;BME280;61560;33.718;73.040;2023-06-24T11:58:01;93284.66;;;41.08;34.50
73332;BME280;61560;33.718;73.040;2023-06-24T12:00:42;93290.41;;;41.08;35.07
73332;BME280;61560;33.718;73.040;2023-06-24T12:03:12;93296.66;;;41.03;35.39
73332;BME280;61560;33.718;73.040;2023-06-24T12:05:40;93300.63;;;40.96;35.23
73332;BME280;61560;33.718;73.040;2023-06-24T12:08:28;93302.56;;;40.91;35.15
73332;BME280;61560;33.718;73.040;2023-06-24T12:10:55;93290.28;;;40.89;35.52
73332;BME280;61560;33.718;73.040;2023-06-24T12:13:23;93282.78;;;40.81;35.43
73332;BME280;61560;33.718;73.040;2023-06-24T12:15:51;93276.47;;;40.69;35.07
73332;BME280;61560;33.718;73.040;2023-06-24T12:18:19;93279.69;;;40.77;34.79
73332;BME280;61560;33.718;73.040;2023-06-24T12:20:46;93277.84;;;40.68;35.21
73332;BME280;61560;33.718;73.040;2023-06-24T12:23:14;93282.75;;;40.66;35.91
73332;BME280;61560;33.718;73.040;2023-06-24T12:25:42;93281.09;;;40.61;35.57
73332;BME280;61560;33.718;73.040;2023-06-24T12:28:10;93285.19;;;40.56;35.82
73332;BME280;61560;33.718;73.040;2023-06-24T12:30:37;93283.59;;;40.53;35.94
73332;BME280;61560;33.718;73.040;2023-06-24T12:33:05;93280.44;;;40.47;36.10
73332;BME280;61560;33.718;73.040;2023-06-24T12:35:35;93274.88;;;40.51;36.12
73332;BME280;61560;33.718;73.040;2023-06-24T12:38:03;93270.06;;;40.55;36.17
73332;BME280;61560;33.718;73.040;2023-06-24T12:40:31;93273.78;;;40.58;36.36
73332;BME280;61560;33.718;73.040;2023-06-24T12:42:58;93273.13;;;40.44;37.73
73332;BME280;61560;33.718;73.040;2023-06-24T12:45:26;93280.97;;;40.28;38.47
73332;BME280;61560;33.718;73.040;2023-06-24T12:47:54;93285.28;;;40.13;38.48
73332;BME280;61560;33.718;73.040;2023-06-24T12:50:22;93286.56;;;39.94;39.00
73332;BME280;61560;33.718;73.040;2023-06-24T12:52:50;93301.50;;;39.64;39.80
73332;BME280;61560;33.718;73.040;2023-06-24T12:55:17;93313.25;;;39.41;40.56
73332;BME280;61560;33.718;73.040;2023-06-24T12:57:45;93312.84;;;39.33;40.88
73332;BME280;61560;33.718;73.040;2023-06-24T13:00:13;93307.00;;;39.17;41.01
73332;BME280;61560;33.718;73.040;2023-06-24T13:02:42;93294.59;;;39.12;41.31
73332;BME280;61560;33.718;73.040;2023-06-24T13:05:09;93274.53;;;39.12;41.62
73332;BME280;61560;33.718;73.040;2023-06-24T13:07:37;93272.84;;;39.07;41.59
73332;BME280;61560;33.718;73.040;2023-06-24T13:10:05;93258.75;;;38.98;41.54
73332;BME280;61560;33.718;73.040;2023-06-24T13:12:33;93268.19;;;38.87;42.13
73332;BME280;61560;33.718;73.040;2023-06-24T13:15:05;93297.88;;;38.80;41.70
73332;BME280;61560;33.718;73.040;2023-06-24T13:17:33;93314.41;;;38.68;42.51
73332;BME280;61560;33.718;73.040;2023-06-24T13:20:01;93324.66;;;38.59;42.56
73332;BME280;61560;33.718;73.040;2023-06-24T13:22:31;93332.19;;;38.53;41.42
73332;BME280;61560;33.718;73.040;2023-06-24T13:24:59;93332.47;;;38.45;42.00
73332;BME280;61560;33.718;73.040;2023-06-24T13:27:27;93324.81;;;37.97;44.42
73332;BME280;61560;33.718;73.040;2023-06-24T13:29:55;93353.56;;;37.51;45.54
73332;BME280;61560;33.718;73.040;2023-06-24T13:32:23;93363.44;;;37.13;41.66
73332;BME280;61560;33.718;73.040;2023-06-24T13:34:51;93389.13;;;36.78;41.60
73332;BME280;61560;33.718;73.040;2023-06-24T13:37:19;93389.22;;;36.46;42.62
73332;BME280;61560;33.718;73.040;2023-06-24T13:39:51;93403.53;;;36.25;44.93
73332;BME280;61560;33.718;73.040;2023-06-24T13:42:18;93395.06;;;36.15;46.55
73332;BME280;61560;33.718;73.040;2023-06-24T13:44:46;93403.00;;;35.84;47.09
73332;BME280;61560;33.718;73.040;2023-06-24T13:47:18;93393.91;;;35.76;47.47
73332;BME280;61560;33.718;73.040;2023-06-24T13:49:46;93405.09;;;35.51;47.18
73332;BME280;61560;33.718;73.040;2023-06-24T13:52:14;93439.63;;;35.35;47.80
73332;BME280;61560;33.718;73.040;2023-06-24T13:54:42;93456.91;;;35.28;47.36
73332;BME280;61560;33.718;73.040;2023-06-24T13:57:11;93477.56;;;35.28;45.55
73332;BME280;61560;33.718;73.040;2023-06-24T13:59:39;93515.53;;;35.21;45.08
73332;BME280;61560;33.718;73.040;2023-06-24T14:02:08;93550.06;;;35.06;46.37
73332;BME280;61560;33.718;73.040;2023-06-24T14:04:36;93601.31;;;34.97;47.21
73332;BME280;61560;33.718;73.040;2023-06-24T14:07:06;93625.91;;;34.73;46.89
73332;BME280;61560;33.718;73.040;2023-06-24T14:09:34;93649.22;;;34.14;50.27
73332;BME280;61560;33.718;73.040;2023-06-24T14:12:01;93637.13;;;33.68;52.11
73332;BME280;61560;33.718;73.040;2023-06-24T14:14:31;93615.47;;;32.92;54.87
73332;BME280;61560;33.718;73.040;2023-06-24T14:17:00;93570.31;;;32.51;55.97
73332;BME280;61560;33.718;73.040;2023-06-24T14:19:33;93556.59;;;32.40;56.08
73332;BME280;61560;33.718;73.040;2023-06-24T14:22:01;93579.63;;;32.44;55.80
73332;BME280;61560;33.718;73.040;2023-06-24T14:24:29;93630.47;;;32.42;54.98